sensor_id;sensor_type;location;lat;lon;timestamp;temperature;humidity
34099;DHT22;20374;49.474;10.944;2023-08-31T00:00:45;13.00;99.90
34099;DHT22;20374;49.474;10.944;2023-08-31T00:03:12;13.00;99.90
34099;DHT22;20374;49.474;10.944;2023-08-31T00:05:40;13.00;99.90
34099;DHT22;20374;49.474;10.944;2023-08-31T00:08:07;13.00;99.90
34099;DHT22;20374;49.474;10.944;2023-08-31T00:10:36;13.00;99.90
34099;DHT22;20374;49.474;10.944;2023-08-31T00:13:03;13.00;99.90
34099;DHT22;20374;49.474;10.944;2023-08-31T00:15:30;13.00;99.90
34099;DHT22;20374;49.474;10.944;2023-08-31T00:17:58;13.00;99.90
34099;DHT22;20374;49.474;10.944;2023-08-31T00:20:25;13.00;99.90
34099;DHT22;20374;49.474;10.944;2023-08-31T00:22:52;13.00;99.90
34099;DHT22;20374;49.474;10.944;2023-08-31T00:25:18;13.00;99.90
34099;DHT22;20374;49.474;10.944;2023-08-31T00:27:44;13.10;99.90
34099;DHT22;20374;49.474;10.944;2023-08-31T00:30:14;13.10;99.90
34099;DHT22;20374;49.474;10.944;2023-08-31T00:32:41;13.10;99.90
34099;DHT22;20374;49.474;10.944;2023-08-31T00:35:09;13.10;99.90
34099;DHT22;20374;49.474;10.944;2023-08-31T00:37:35;13.00;99.90
34099;DHT22;20374;49.474;10.944;2023-08-31T00:40:01;13.00;99.90
34099;DHT22;20374;49.474;10.944;2023-08-31T00:42:27;13.10;99.90
34099;DHT22;20374;49.474;10.944;2023-08-31T00:44:55;13.00;99.90
34099;DHT22;20374;49.474;10.944;2023-08-31T00:47:21;13.00;99.90
34099;DHT22;20374;49.474;10.944;2023-08-31T00:49:48;13.00;99.90
34099;DHT22;20374;49.474;10.944;2023-08-31T00:52:15;13.00;99.90
34099;DHT22;20374;49.474;10.944;2023-08-31T00:54:41;13.00;99.90
34099;DHT22;20374;49.474;10.944;2023-08-31T00:57:10;13.00;99.90
34099;DHT22;20374;49.474;10.944;2023-08-31T00:59:36;13.00;99.90
34099;DHT22;20374;49.474;10.944;2023-08-31T01:02:15;13.00;99.90
34099;DHT22;20374;49.474;10.944;2023-08-31T01:04:58;12.90;99.90
34099;DHT22;20374;49.474;10.944;2023-08-31T01:15:13;12.90;99.90
34099;DHT22;20374;49.474;10.944;2023-08-31T01:17:47;12.90;99.90
34099;DHT22;20374;49.474;10.944;2023-08-31T01:20:18;12.90;99.90
34099;DHT22;20374;49.474;10.944;2023-08-31T01:23:04;12.90;99.90
34099;DHT22;20374;49.474;10.944;2023-08-31T01:25:33;12.90;99.90
34099;DHT22;20374;49.474;10.944;2023-08-31T01:27:59;12.90;99.90
34099;DHT22;20374;49.474;10.944;2023-08-31T01:30:29;12.90;99.90
34099;DHT22;20374;49.474;10.944;2023-08-31T01:32:56;12.90;99.90
34099;DHT22;20374;49.474;10.944;2023-08-31T01:35:22;12.90;99.90
34099;DHT22;20374;49.474;10.944;2023-08-31T01:37:57;12.90;99.90
34099;DHT22;20374;49.474;10.944;2023-08-31T01:40:56;12.90;99.90
34099;DHT22;20374;49.474;10.944;2023-08-31T01:43:23;12.90;99.90
34099;DHT22;20374;49.474;10.944;2023-08-31T01:45:49;12.90;99.90
34099;DHT22;20374;49.474;10.944;2023-08-31T01:48:16;12.90;99.90
34099;DHT22;20374;49.474;10.944;2023-08-31T01:50:42;12.90;99.90
34099;DHT22;20374;49.474;10.944;2023-08-31T01:53:08;12.90;99.90
34099;DHT22;20374;49.474;10.944;2023-08-31T01:55:34;12.90;99.90
34099;DHT22;20374;49.474;10.944;2023-08-31T01:58:00;12.90;99.90
34099;DHT22;20374;49.474;10.944;2023-08-31T02:00:27;12.90;99.90
34099;DHT22;20374;49.474;10.944;2023-08-31T02:02:55;12.90;99.90
34099;DHT22;20374;49.474;10.944;2023-08-31T02:05:21;12.90;99.90
34099;DHT22;20374;49.474;10.944;2023-08-31T02:07:47;12.80;99.90
34099;DHT22;20374;49.474;10.944;2023-08-31T02:10:13;12.80;99.90
34099;DHT22;20374;49.474;10.944;2023-08-31T02:12:42;12.80;99.90
34099;DHT22;20374;49.474;10.944;2023-08-31T02:15:08;12.80;99.90
34099;DHT22;20374;49.474;10.944;2023-08-31T02:17:36;12.80;99.90
34099;DHT22;20374;49.474;10.944;2023-08-31T02:20:03;12.80;99.90
34099;DHT22;20374;49.474;10.944;2023-08-31T02:22:31;12.80;99.90
34099;DHT22;20374;49.474;10.944;2023-08-31T02:24:59;12.80;99.90
34099;DHT22;20374;49.474;10.944;2023-08-31T02:27:28;12.80;99.90
34099;DHT22;20374;49.474;10.944;2023-08-31T02:29:54;12.80;99.90
34099;DHT22;20374;49.474;10.944;2023-08-31T02:32:20;12.70;99.90
34099;DHT22;20374;49.474;10.944;2023-08-31T02:34:46;12.70;99.90
34099;DHT22;20374;49.474;10.944;2023-08-31T02:37:11;12.60;99.90
34099;DHT22;20374;49.474;10.944;2023-08-31T02:39:37;12.60;99.90
34099;DHT22;20374;49.474;10.944;2023-08-31T02:42:03;12.60;99.90
34099;DHT22;20374;49.474;10.944;2023-08-31T02:44:31;12.50;99.90
34099;DHT22;20374;49.474;10.944;2023-08-31T02:46:57;12.50;99.90
34099;DHT22;20374;49.474;10.944;2023-08-31T02:49:23;12.40;99.90
34099;DHT22;20374;49.474;10.944;2023-08-31T02:51:49;12.40;99.90
34099;DHT22;20374;49.474;10.944;2023-08-31T02:54:15;12.30;99.90
34099;DHT22;20374;49.474;10.944;2023-08-31T02:56:42;12.30;99.90
34099;DHT22;20374;49.474;10.944;2023-08-31T02:59:08;12.30;99.90
34099;DHT22;20374;49.474;10.944;2023-08-31T03:01:34;12.20;99.90
34099;DHT22;20374;49.474;10.944;2023-08-31T03:04:00;12.20;99.90
34099;DHT22;20374;49.474;10.944;2023-08-31T03:06:26;12.10;99.90
34099;DHT22;20374;49.474;10.944;2023-08-31T03:08:52;12.10;99.90
34099;DHT22;20374;49.474;10.944;2023-08-31T03:11:18;12.10;99.90
34099;DHT22;20374;49.474;10.944;2023-08-31T03:13:44;12.00;99.90
34099;DHT22;20374;49.474;10.944;2023-08-31T03:16:14;12.00;99.90
34099;DHT22;20374;49.474;10.944;2023-08-31T03:18:41;12.00;99.90
34099;DHT22;20374;49.474;10.944;2023-08-31T03:21:07;12.00;99.90
34099;DHT22;20374;49.474;10.944;2023-08-31T03:23:36;12.00;99.90
34099;DHT22;20374;49.474;10.944;2023-08-31T03:26:11;11.90;99.90
34099;DHT22;20374;49.474;10.944;2023-08-31T03:28:37;11.90;99.90
34099;DHT22;20374;49.474;10.944;2023-08-31T03:31:04;11.90;99.90
34099;DHT22;20374;49.474;10.944;2023-08-31T03:33:30;11.90;99.90
34099;DHT22;20374;49.474;10.944;2023-08-31T03:36:03;11.80;99.90
34099;DHT22;20374;49.474;10.944;2023-08-31T03:38:32;11.80;99.90
34099;DHT22;20374;49.474;10.944;2023-08-31T03:40:59;11.80;99.90
34099;DHT22;20374;49.474;10.944;2023-08-31T03:43:25;11.70;99.90
34099;DHT22;20374;49.474;10.944;2023-08-31T03:45:55;11.70;99.90
34099;DHT22;20374;49.474;10.944;2023-08-31T03:48:22;11.70;99.90
34099;DHT22;20374;49.474;10.944;2023-08-31T03:50:52;11.70;99.90
34099;DHT22;20374;49.474;10.944;2023-08-31T03:53:19;11.70;99.90
34099;DHT22;20374;49.474;10.944;2023-08-31T03:55:45;11.70;99.90
34099;DHT22;20374;49.474;10.944;2023-08-31T03:58:14;11.70;99.90
34099;DHT22;20374;49.474;10.944;2023-08-31T04:00:41;11.70;99.90
34099;DHT22;20374;49.474;10.944;2023-08-31T04:03:08;11.60;99.90
34099;DHT22;20374;49.474;10.944;2023-08-31T04:05:36;11.60;99.90
34099;DHT22;20374;49.474;10.944;2023-08-31T04:08:02;11.60;99.90
34099;DHT22;20374;49.474;10.944;2023-08-31T04:10:29;11.60;99.90
34099;DHT22;20374;49.474;10.944;2023-08-31T04:12:57;11.50;99.90
34099;DHT22;20374;49.474;10.944;2023-08-31T04:15:23;11.60;99.90
34099;DHT22;20374;49.474;10.944;2023-08-31T04:17:49;11.50;99.90
34099;DHT22;20374;49.474;10.944;2023-08-31T04:20:15;11.50;99.90
34099;DHT22;20374;49.474;10.944;2023-08-31T04:22:41;11.50;99.90
34099;DHT22;20374;49.474;10.944;2023-08-31T04:25:07;11.50;99.90
34099;DHT22;20374;49.474;10.944;2023-08-31T04:27:33;11.50;99.90
34099;DHT22;20374;49.474;10.944;2023-08-31T04:30:00;11.50;99.90
34099;DHT22;20374;49.474;10.944;2023-08-31T04:32:27;11.40;99.90
34099;DHT22;20374;49.474;10.944;2023-08-31T04:34:53;11.40;99.90
34099;DHT22;20374;49.474;10.944;2023-08-31T04:37:20;11.40;99.90
34099;DHT22;20374;49.474;10.944;2023-08-31T04:39:46;11.40;99.90
34099;DHT22;20374;49.474;10.944;2023-08-31T04:42:12;11.40;99.90
34099;DHT22;20374;49.474;10.944;2023-08-31T04:44:38;11.40;99.90
34099;DHT22;20374;49.474;10.944;2023-08-31T04:47:04;11.40;99.90
34099;DHT22;20374;49.474;10.944;2023-08-31T04:49:30;11.40;99.90
34099;DHT22;20374;49.474;10.944;2023-08-31T04:51:56;11.40;99.90
34099;DHT22;20374;49.474;10.944;2023-08-31T04:54:22;11.40;99.90
34099;DHT22;20374;49.474;10.944;2023-08-31T04:56:48;11.40;99.90
34099;DHT22;20374;49.474;10.944;2023-08-31T04:59:14;11.40;99.90
34099;DHT22;20374;49.474;10.944;2023-08-31T05:01:40;11.40;99.90
34099;DHT22;20374;49.474;10.944;2023-08-31T05:04:06;11.40;99.90
34099;DHT22;20374;49.474;10.944;2023-08-31T05:06:32;11.50;99.90
34099;DHT22;20374;49.474;10.944;2023-08-31T05:08:58;11.50;99.90
34099;DHT22;20374;49.474;10.944;2023-08-31T05:11:24;11.50;99.90
34099;DHT22;20374;49.474;10.944;2023-08-31T05:13:50;11.60;99.90
34099;DHT22;20374;49.474;10.944;2023-08-31T05:16:16;11.70;99.90
34099;DHT22;20374;49.474;10.944;2023-08-31T05:18:42;11.70;99.90
34099;DHT22;20374;49.474;10.944;2023-08-31T05:21:08;11.80;99.90
34099;DHT22;20374;49.474;10.944;2023-08-31T05:23:37;11.90;99.90
34099;DHT22;20374;49.474;10.944;2023-08-31T05:26:03;11.90;99.90
34099;DHT22;20374;49.474;10.944;2023-08-31T05:28:29;11.90;99.90
34099;DHT22;20374;49.474;10.944;2023-08-31T05:30:56;11.80;99.90
34099;DHT22;20374;49.474;10.944;2023-08-31T05:33:23;11.80;99.90
34099;DHT22;20374;49.474;10.944;2023-08-31T05:35:53;11.80;99.90
34099;DHT22;20374;49.474;10.944;2023-08-31T05:38:18;11.80;99.90
34099;DHT22;20374;49.474;10.944;2023-08-31T05:40:44;11.80;99.90
34099;DHT22;20374;49.474;10.944;2023-08-31T05:43:13;11.80;99.90
34099;DHT22;20374;49.474;10.944;2023-08-31T05:45:39;11.80;99.90
34099;DHT22;20374;49.474;10.944;2023-08-31T05:48:07;11.90;99.90
34099;DHT22;20374;49.474;10.944;2023-08-31T05:50:33;12.00;99.90
34099;DHT22;20374;49.474;10.944;2023-08-31T05:52:59;12.20;99.90
34099;DHT22;20374;49.474;10.944;2023-08-31T05:55:25;12.40;99.90
34099;DHT22;20374;49.474;10.944;2023-08-31T05:57:51;12.50;99.90
34099;DHT22;20374;49.474;10.944;2023-08-31T06:00:17;12.60;99.90
34099;DHT22;20374;49.474;10.944;2023-08-31T06:02:44;12.70;99.90
34099;DHT22;20374;49.474;10.944;2023-08-31T06:05:12;13.10;99.90
34099;DHT22;20374;49.474;10.944;2023-08-31T06:07:39;13.60;99.90
34099;DHT22;20374;49.474;10.944;2023-08-31T06:10:06;14.00;99.90
34099;DHT22;20374;49.474;10.944;2023-08-31T06:12:32;14.20;99.90
34099;DHT22;20374;49.474;10.944;2023-08-31T06:14:58;14.10;99.90
34099;DHT22;20374;49.474;10.944;2023-08-31T06:17:24;14.10;99.90
34099;DHT22;20374;49.474;10.944;2023-08-31T06:19:50;14.00;99.90
34099;DHT22;20374;49.474;10.944;2023-08-31T06:22:15;14.00;99.90
34099;DHT22;20374;49.474;10.944;2023-08-31T06:24:41;14.00;99.90
34099;DHT22;20374;49.474;10.944;2023-08-31T06:27:08;14.10;99.90
34099;DHT22;20374;49.474;10.944;2023-08-31T06:29:34;14.00;99.90
34099;DHT22;20374;49.474;10.944;2023-08-31T06:32:00;13.80;99.90
34099;DHT22;20374;49.474;10.944;2023-08-31T06:34:25;13.70;99.90
34099;DHT22;20374;49.474;10.944;2023-08-31T06:36:51;13.60;99.90
34099;DHT22;20374;49.474;10.944;2023-08-31T06:39:17;13.70;99.90
34099;DHT22;20374;49.474;10.944;2023-08-31T06:41:43;13.80;99.90
34099;DHT22;20374;49.474;10.944;2023-08-31T06:44:09;14.00;99.90
34099;DHT22;20374;49.474;10.944;2023-08-31T06:46:35;14.20;99.90
34099;DHT22;20374;49.474;10.944;2023-08-31T06:49:04;14.60;99.90
34099;DHT22;20374;49.474;10.944;2023-08-31T06:51:33;14.90;99.90
34099;DHT22;20374;49.474;10.944;2023-08-31T06:54:00;15.10;99.90
34099;DHT22;20374;49.474;10.944;2023-08-31T06:56:35;15.10;99.90
34099;DHT22;20374;49.474;10.944;2023-08-31T06:59:01;15.20;99.90
34099;DHT22;20374;49.474;10.944;2023-08-31T07:01:28;15.40;99.90
34099;DHT22;20374;49.474;10.944;2023-08-31T07:03:55;15.60;99.90
34099;DHT22;20374;49.474;10.944;2023-08-31T07:06:21;15.90;99.90
34099;DHT22;20374;49.474;10.944;2023-08-31T07:08:47;16.20;99.90
34099;DHT22;20374;49.474;10.944;2023-08-31T07:11:14;16.00;99.90
34099;DHT22;20374;49.474;10.944;2023-08-31T07:13:41;16.20;99.90
34099;DHT22;20374;49.474;10.944;2023-08-31T07:16:07;16.40;99.90
34099;DHT22;20374;49.474;10.944;2023-08-31T07:18:32;16.30;99.90
34099;DHT22;20374;49.474;10.944;2023-08-31T07:20:58;16.40;99.90
34099;DHT22;20374;49.474;10.944;2023-08-31T07:23:24;16.00;99.90
34099;DHT22;20374;49.474;10.944;2023-08-31T07:25:50;15.90;99.90
34099;DHT22;20374;49.474;10.944;2023-08-31T07:28:16;16.30;99.90
34099;DHT22;20374;49.474;10.944;2023-08-31T07:30:43;16.90;99.90
34099;DHT22;20374;49.474;10.944;2023-08-31T07:33:09;17.70;99.90
34099;DHT22;20374;49.474;10.944;2023-08-31T07:35:35;18.20;99.90
34099;DHT22;20374;49.474;10.944;2023-08-31T07:38:01;18.30;99.90
34099;DHT22;20374;49.474;10.944;2023-08-31T07:40:27;18.30;99.90
34099;DHT22;20374;49.474;10.944;2023-08-31T07:42:53;18.50;99.90
34099;DHT22;20374;49.474;10.944;2023-08-31T07:45:19;18.20;99.90
34099;DHT22;20374;49.474;10.944;2023-08-31T07:47:44;17.90;99.90
34099;DHT22;20374;49.474;10.944;2023-08-31T07:50:10;17.80;99.90
34099;DHT22;20374;49.474;10.944;2023-08-31T07:52:38;17.90;99.90
34099;DHT22;20374;49.474;10.944;2023-08-31T07:55:04;18.00;99.90
34099;DHT22;20374;49.474;10.944;2023-08-31T07:57:30;18.10;99.90
34099;DHT22;20374;49.474;10.944;2023-08-31T07:59:56;17.90;99.90
34099;DHT22;20374;49.474;10.944;2023-08-31T08:02:21;17.70;99.90
34099;DHT22;20374;49.474;10.944;2023-08-31T08:04:47;17.20;99.90
34099;DHT22;20374;49.474;10.944;2023-08-31T08:07:13;16.90;99.90
34099;DHT22;20374;49.474;10.944;2023-08-31T08:09:39;16.40;99.90
34099;DHT22;20374;49.474;10.944;2023-08-31T08:12:05;16.00;99.90
34099;DHT22;20374;49.474;10.944;2023-08-31T08:14:32;15.70;99.90
34099;DHT22;20374;49.474;10.944;2023-08-31T08:16:59;15.80;99.90
34099;DHT22;20374;49.474;10.944;2023-08-31T08:19:25;16.00;99.90
34099;DHT22;20374;49.474;10.944;2023-08-31T08:21:51;16.10;99.90
34099;DHT22;20374;49.474;10.944;2023-08-31T08:24:18;16.10;99.90
34099;DHT22;20374;49.474;10.944;2023-08-31T08:26:44;16.20;99.90
34099;DHT22;20374;49.474;10.944;2023-08-31T08:29:10;16.10;99.90
34099;DHT22;20374;49.474;10.944;2023-08-31T08:31:36;15.80;99.90
34099;DHT22;20374;49.474;10.944;2023-08-31T08:34:02;15.80;99.90
34099;DHT22;20374;49.474;10.944;2023-08-31T08:36:29;15.80;99.90
34099;DHT22;20374;49.474;10.944;2023-08-31T08:38:55;15.80;99.90
34099;DHT22;20374;49.474;10.944;2023-08-31T08:41:23;15.90;99.90
34099;DHT22;20374;49.474;10.944;2023-08-31T08:43:51;16.00;99.90
34099;DHT22;20374;49.474;10.944;2023-08-31T08:46:17;16.00;99.90
34099;DHT22;20374;49.474;10.944;2023-08-31T08:48:44;15.90;99.90
34099;DHT22;20374;49.474;10.944;2023-08-31T08:51:13;15.90;99.90
34099;DHT22;20374;49.474;10.944;2023-08-31T08:53:42;15.80;99.90
34099;DHT22;20374;49.474;10.944;2023-08-31T08:56:09;15.70;99.90
34099;DHT22;20374;49.474;10.944;2023-08-31T08:58:35;15.70;99.90
34099;DHT22;20374;49.474;10.944;2023-08-31T09:01:02;15.60;99.90
34099;DHT22;20374;49.474;10.944;2023-08-31T09:03:29;15.70;99.90
34099;DHT22;20374;49.474;10.944;2023-08-31T09:05:54;15.60;99.90
34099;DHT22;20374;49.474;10.944;2023-08-31T09:08:27;15.50;99.90
34099;DHT22;20374;49.474;10.944;2023-08-31T09:10:57;15.50;99.90
34099;DHT22;20374;49.474;10.944;2023-08-31T09:13:27;15.60;99.90
34099;DHT22;20374;49.474;10.944;2023-08-31T09:15:55;16.30;99.90
34099;DHT22;20374;49.474;10.944;2023-08-31T09:18:30;16.90;99.90
34099;DHT22;20374;49.474;10.944;2023-08-31T09:20:59;17.40;99.90
34099;DHT22;20374;49.474;10.944;2023-08-31T09:23:26;17.90;99.90
34099;DHT22;20374;49.474;10.944;2023-08-31T09:25:54;18.30;99.90
34099;DHT22;20374;49.474;10.944;2023-08-31T09:28:25;18.30;99.90
34099;DHT22;20374;49.474;10.944;2023-08-31T09:31:15;18.10;99.90
34099;DHT22;20374;49.474;10.944;2023-08-31T09:33:52;17.60;99.90
34099;DHT22;20374;49.474;10.944;2023-08-31T09:36:20;17.10;99.90
34099;DHT22;20374;49.474;10.944;2023-08-31T09:38:46;16.90;99.90
34099;DHT22;20374;49.474;10.944;2023-08-31T09:41:12;17.40;99.90
34099;DHT22;20374;49.474;10.944;2023-08-31T09:43:39;18.40;99.00
34099;DHT22;20374;49.474;10.944;2023-08-31T09:46:05;18.30;99.10
34099;DHT22;20374;49.474;10.944;2023-08-31T09:48:31;18.00;99.90
34099;DHT22;20374;49.474;10.944;2023-08-31T09:50:57;17.80;99.90
34099;DHT22;20374;49.474;10.944;2023-08-31T09:53:29;17.60;99.90
34099;DHT22;20374;49.474;10.944;2023-08-31T09:55:57;17.80;99.80
34099;DHT22;20374;49.474;10.944;2023-08-31T09:58:23;18.50;99.10
34099;DHT22;20374;49.474;10.944;2023-08-31T10:00:51;18.70;99.70
34099;DHT22;20374;49.474;10.944;2023-08-31T10:03:17;18.50;99.00
34099;DHT22;20374;49.474;10.944;2023-08-31T10:05:44;18.10;98.20
34099;DHT22;20374;49.474;10.944;2023-08-31T10:08:14;17.60;98.30
34099;DHT22;20374;49.474;10.944;2023-08-31T10:10:41;17.30;99.50
34099;DHT22;20374;49.474;10.944;2023-08-31T10:13:08;17.00;99.90
34099;DHT22;20374;49.474;10.944;2023-08-31T10:15:35;16.80;99.90
34099;DHT22;20374;49.474;10.944;2023-08-31T10:18:03;16.60;99.90
34099;DHT22;20374;49.474;10.944;2023-08-31T10:20:30;16.40;99.90
34099;DHT22;20374;49.474;10.944;2023-08-31T10:23:04;16.30;99.90
34099;DHT22;20374;49.474;10.944;2023-08-31T10:26:03;16.20;99.90
34099;DHT22;20374;49.474;10.944;2023-08-31T10:28:42;16.20;99.90
34099;DHT22;20374;49.474;10.944;2023-08-31T10:31:10;16.10;99.90
34099;DHT22;20374;49.474;10.944;2023-08-31T10:33:43;16.20;99.90
34099;DHT22;20374;49.474;10.944;2023-08-31T10:36:11;16.30;99.90
34099;DHT22;20374;49.474;10.944;2023-08-31T10:38:38;16.40;99.90
34099;DHT22;20374;49.474;10.944;2023-08-31T10:46:33;17.00;99.90
34099;DHT22;20374;49.474;10.944;2023-08-31T10:49:14;17.20;99.90
34099;DHT22;20374;49.474;10.944;2023-08-31T10:51:45;17.10;99.90
34099;DHT22;20374;49.474;10.944;2023-08-31T10:54:27;17.10;99.90
34099;DHT22;20374;49.474;10.944;2023-08-31T10:59:49;17.40;99.90
34099;DHT22;20374;49.474;10.944;2023-08-31T11:02:37;17.60;99.90
34099;DHT22;20374;49.474;10.944;2023-08-31T11:05:15;17.60;99.20
34099;DHT22;20374;49.474;10.944;2023-08-31T11:07:46;17.50;99.90
34099;DHT22;20374;49.474;10.944;2023-08-31T11:12:41;17.20;99.80
34099;DHT22;20374;49.474;10.944;2023-08-31T11:15:10;17.10;99.90
34099;DHT22;20374;49.474;10.944;2023-08-31T11:17:37;17.10;99.90
34099;DHT22;20374;49.474;10.944;2023-08-31T11:20:07;17.20;99.90
34099;DHT22;20374;49.474;10.944;2023-08-31T11:22:38;17.30;99.90
34099;DHT22;20374;49.474;10.944;2023-08-31T11:25:05;17.40;99.90
34099;DHT22;20374;49.474;10.944;2023-08-31T11:27:31;17.40;99.90
34099;DHT22;20374;49.474;10.944;2023-08-31T11:29:57;17.40;99.90
34099;DHT22;20374;49.474;10.944;2023-08-31T11:32:23;17.50;99.70
34099;DHT22;20374;49.474;10.944;2023-08-31T11:34:50;17.60;99.90
34099;DHT22;20374;49.474;10.944;2023-08-31T11:37:16;17.60;99.30
34099;DHT22;20374;49.474;10.944;2023-08-31T11:39:52;17.50;99.30
34099;DHT22;20374;49.474;10.944;2023-08-31T11:42:19;17.50;99.70
34099;DHT22;20374;49.474;10.944;2023-08-31T11:44:50;17.50;99.90
34099;DHT22;20374;49.474;10.944;2023-08-31T11:47:17;17.50;99.90
34099;DHT22;20374;49.474;10.944;2023-08-31T11:49:44;17.50;99.90
34099;DHT22;20374;49.474;10.944;2023-08-31T11:52:12;17.60;99.90
34099;DHT22;20374;49.474;10.944;2023-08-31T11:54:39;17.70;99.90
34099;DHT22;20374;49.474;10.944;2023-08-31T11:57:10;17.80;99.90
34099;DHT22;20374;49.474;10.944;2023-08-31T11:59:37;17.80;99.90
34099;DHT22;20374;49.474;10.944;2023-08-31T12:02:07;17.90;99.40
34099;DHT22;20374;49.474;10.944;2023-08-31T12:04:44;18.00;99.60
34099;DHT22;20374;49.474;10.944;2023-08-31T12:07:11;18.00;99.20
34099;DHT22;20374;49.474;10.944;2023-08-31T12:09:37;18.00;98.80
34099;DHT22;20374;49.474;10.944;2023-08-31T12:12:03;18.20;98.90
34099;DHT22;20374;49.474;10.944;2023-08-31T12:14:36;18.30;98.90
34099;DHT22;20374;49.474;10.944;2023-08-31T12:17:05;18.20;97.80
34099;DHT22;20374;49.474;10.944;2023-08-31T12:19:33;18.10;98.60
34099;DHT22;20374;49.474;10.944;2023-08-31T12:22:01;18.20;98.20
34099;DHT22;20374;49.474;10.944;2023-08-31T12:24:27;18.40;99.60
34099;DHT22;20374;49.474;10.944;2023-08-31T12:26:53;18.70;97.80
34099;DHT22;20374;49.474;10.944;2023-08-31T12:29:20;18.70;96.40
34099;DHT22;20374;49.474;10.944;2023-08-31T12:31:46;18.50;96.50
34099;DHT22;20374;49.474;10.944;2023-08-31T12:34:12;18.50;97.50
34099;DHT22;20374;49.474;10.944;2023-08-31T12:36:38;18.50;98.60
34099;DHT22;20374;49.474;10.944;2023-08-31T12:39:09;18.50;97.30
34099;DHT22;20374;49.474;10.944;2023-08-31T12:41:36;18.40;96.70
34099;DHT22;20374;49.474;10.944;2023-08-31T12:44:03;18.50;97.00
34099;DHT22;20374;49.474;10.944;2023-08-31T12:46:29;18.50;98.00
34099;DHT22;20374;49.474;10.944;2023-08-31T12:48:55;18.40;97.80
34099;DHT22;20374;49.474;10.944;2023-08-31T12:51:21;18.50;97.10
34099;DHT22;20374;49.474;10.944;2023-08-31T12:53:47;18.60;97.10
34099;DHT22;20374;49.474;10.944;2023-08-31T12:56:14;18.80;97.60
34099;DHT22;20374;49.474;10.944;2023-08-31T12:58:56;18.70;96.60
34099;DHT22;20374;49.474;10.944;2023-08-31T13:01:22;18.60;95.70
34099;DHT22;20374;49.474;10.944;2023-08-31T13:03:49;18.50;97.00
34099;DHT22;20374;49.474;10.944;2023-08-31T13:06:15;18.40;97.20
34099;DHT22;20374;49.474;10.944;2023-08-31T13:08:42;18.90;98.10
34099;DHT22;20374;49.474;10.944;2023-08-31T13:11:10;19.80;96.90
34099;DHT22;20374;49.474;10.944;2023-08-31T13:13:36;20.40;96.70
34099;DHT22;20374;49.474;10.944;2023-08-31T13:16:02;20.80;95.10
34099;DHT22;20374;49.474;10.944;2023-08-31T13:18:28;20.60;94.00
34099;DHT22;20374;49.474;10.944;2023-08-31T13:20:55;20.10;94.80
34099;DHT22;20374;49.474;10.944;2023-08-31T13:23:22;19.80;96.70
34099;DHT22;20374;49.474;10.944;2023-08-31T13:25:49;20.60;95.70
34099;DHT22;20374;49.474;10.944;2023-08-31T13:28:16;21.30;93.80
34099;DHT22;20374;49.474;10.944;2023-08-31T13:30:41;21.70;92.90
34099;DHT22;20374;49.474;10.944;2023-08-31T13:33:08;21.80;91.90
34099;DHT22;20374;49.474;10.944;2023-08-31T13:35:34;21.20;90.90
34099;DHT22;20374;49.474;10.944;2023-08-31T13:38:01;20.50;92.30
34099;DHT22;20374;49.474;10.944;2023-08-31T13:40:29;20.80;93.20
34099;DHT22;20374;49.474;10.944;2023-08-31T13:42:59;21.50;92.80
34099;DHT22;20374;49.474;10.944;2023-08-31T13:45:32;22.30;92.30
34099;DHT22;20374;49.474;10.944;2023-08-31T13:47:59;22.50;91.60
34099;DHT22;20374;49.474;10.944;2023-08-31T13:50:30;22.00;90.20
34099;DHT22;20374;49.474;10.944;2023-08-31T13:52:56;21.50;92.10
34099;DHT22;20374;49.474;10.944;2023-08-31T13:55:22;21.10;93.40
34099;DHT22;20374;49.474;10.944;2023-08-31T13:57:49;20.70;92.20
34099;DHT22;20374;49.474;10.944;2023-08-31T14:00:15;20.10;91.50
34099;DHT22;20374;49.474;10.944;2023-08-31T14:02:42;19.80;92.00
34099;DHT22;20374;49.474;10.944;2023-08-31T14:05:09;19.60;93.50
34099;DHT22;20374;49.474;10.944;2023-08-31T14:07:36;19.50;92.30
34099;DHT22;20374;49.474;10.944;2023-08-31T14:10:03;19.30;93.70
34099;DHT22;20374;49.474;10.944;2023-08-31T14:12:33;19.20;94.70
34099;DHT22;20374;49.474;10.944;2023-08-31T14:14:59;19.10;94.00
34099;DHT22;20374;49.474;10.944;2023-08-31T14:17:26;19.00;95.00
34099;DHT22;20374;49.474;10.944;2023-08-31T14:19:53;19.00;94.70
34099;DHT22;20374;49.474;10.944;2023-08-31T14:22:19;18.80;94.30
34099;DHT22;20374;49.474;10.944;2023-08-31T14:24:45;18.60;95.40
34099;DHT22;20374;49.474;10.944;2023-08-31T14:27:11;18.60;95.40
34099;DHT22;20374;49.474;10.944;2023-08-31T14:29:37;18.60;95.90
34099;DHT22;20374;49.474;10.944;2023-08-31T14:32:03;18.60;94.80
34099;DHT22;20374;49.474;10.944;2023-08-31T14:34:30;18.50;93.90
34099;DHT22;20374;49.474;10.944;2023-08-31T14:36:57;18.40;94.00
34099;DHT22;20374;49.474;10.944;2023-08-31T14:39:25;18.40;93.80
34099;DHT22;20374;49.474;10.944;2023-08-31T14:41:58;18.20;93.20
34099;DHT22;20374;49.474;10.944;2023-08-31T14:44:24;18.20;94.40
34099;DHT22;20374;49.474;10.944;2023-08-31T14:46:51;18.20;94.20
34099;DHT22;20374;49.474;10.944;2023-08-31T14:49:17;18.30;94.10
34099;DHT22;20374;49.474;10.944;2023-08-31T14:51:43;18.80;93.80
34099;DHT22;20374;49.474;10.944;2023-08-31T14:54:09;19.20;93.20
34099;DHT22;20374;49.474;10.944;2023-08-31T14:56:35;19.50;92.90
34099;DHT22;20374;49.474;10.944;2023-08-31T14:59:01;19.60;93.20
34099;DHT22;20374;49.474;10.944;2023-08-31T15:01:27;19.60;92.40
34099;DHT22;20374;49.474;10.944;2023-08-31T15:03:54;19.90;95.10
34099;DHT22;20374;49.474;10.944;2023-08-31T15:06:20;20.00;92.40
34099;DHT22;20374;49.474;10.944;2023-08-31T15:08:46;20.00;92.10
34099;DHT22;20374;49.474;10.944;2023-08-31T15:11:12;20.10;92.60
34099;DHT22;20374;49.474;10.944;2023-08-31T15:13:38;19.80;91.80
34099;DHT22;20374;49.474;10.944;2023-08-31T15:16:04;19.30;92.20
34099;DHT22;20374;49.474;10.944;2023-08-31T15:18:30;19.20;93.10
34099;DHT22;20374;49.474;10.944;2023-08-31T15:20:56;19.00;93.80
34099;DHT22;20374;49.474;10.944;2023-08-31T15:23:22;19.00;93.50
34099;DHT22;20374;49.474;10.944;2023-08-31T15:25:48;19.00;94.10
34099;DHT22;20374;49.474;10.944;2023-08-31T15:28:15;19.10;94.60
34099;DHT22;20374;49.474;10.944;2023-08-31T15:30:41;19.00;93.90
34099;DHT22;20374;49.474;10.944;2023-08-31T15:33:07;19.00;95.10
34099;DHT22;20374;49.474;10.944;2023-08-31T15:35:33;18.90;93.70